Impacts TAF Board INFO
FOR SITUATIONAL AWARENESS. NOT TO BE USED FOR FLIGHT PLANNING PURPOSES.
IDs:

KMCI - Kansas City Intl, MO, US

Issued at 1128 UTC 19 Aug 2017
Updated at 1513 UTC 19 Aug 2017
Potential Impact None Slight Moderate High
Time1453Z 19/16Z 19/17Z 19/18Z 19/19Z 19/20Z 19/21Z 19/22Z 19/23Z 20/00Z 20/01Z 20/02Z 20/03Z 20/04Z>>
Type OBS PRVL PRVL PRVL PRVL PRVL PRVL PRVL PRVL PRVL PRVL PRVL PRVL PRVL
VIS 10 >6 >6 >6 >6 >6 >6 >6 >6 >6 >6 >6 >6 >6
CIG -- -- -- -- -- -- -- -- -- -- -- -- -- --
Cover CLR SKC SKC FEW FEW FEW FEW FEW FEW FEW FEW FEW FEW FEW
FltCat VFR VFR VFR VFR VFR VFR VFR VFR VFR VFR VFR VFR VFR VFR
WX -- -- -- -- -- -- -- -- -- -- -- -- -- --
WDir VRB VRB VRB 150 150 150 150 150 150 150 150 150 150 150
WSpd 0 3 3 6 6 6 6 6 6 6 6 6 6 6
WGst -- -- -- -- -- -- -- -- -- -- -- -- -- --

Raw TAF
KMCI 191128Z 1912/2012 VRB03KT P6SM SKC
  FM191800 15006KT P6SM FEW250


Raw METAR
KMCI 191453Z 00000KT 10SM CLR 27/21 A2998 RMK AO2 SLP141 T02670211 53007 $
KMCI 191353Z 00000KT 10SM CLR 24/21 A2997 RMK AO2 SLP139 T02390206 $
KMCI 191253Z 00000KT 8SM CLR 21/20 A2996 RMK AO2 SLP137 T02110200 $

METAR Board
Radar Display
Forecast Discussion

FOR SITUATIONAL AWARENESS. NOT TO BE USED FOR FLIGHT PLANNING PURPOSES.